createdAt,value
2018-08-03T00:01:13.933Z,5.63
2018-08-03T00:03:41.742Z,6.13
2018-08-03T00:06:09.567Z,5.90
2018-08-03T00:08:37.370Z,5.97
2018-08-03T00:11:05.213Z,6.10
2018-08-03T00:13:33.000Z,6.07
2018-08-03T00:16:00.813Z,5.27
2018-08-03T00:18:28.642Z,5.63
2018-08-03T00:20:56.465Z,6.13
2018-08-03T00:23:24.256Z,5.80
2018-08-03T00:25:52.069Z,5.60
2018-08-03T00:28:19.862Z,6.23
2018-08-03T00:30:47.674Z,6.17
2018-08-03T00:33:15.869Z,6.00
2018-08-03T00:35:43.658Z,6.03
2018-08-03T00:38:11.506Z,6.30
2018-08-03T00:40:39.298Z,6.53
2018-08-03T00:43:07.150Z,6.20
2018-08-03T00:45:35.126Z,6.90
2018-08-03T00:48:02.996Z,6.57
2018-08-03T00:50:30.825Z,6.30
2018-08-03T00:52:58.623Z,6.67
2018-08-03T00:58:00.725Z,6.33
2018-08-03T01:00:28.553Z,6.80
2018-08-03T01:02:56.325Z,7.20
2018-08-03T01:05:24.116Z,6.67
2018-08-03T01:07:51.916Z,5.87
2018-08-03T01:10:19.722Z,6.93
2018-08-03T01:12:48.131Z,6.27
2018-08-03T01:15:16.320Z,6.70
2018-08-03T01:17:44.138Z,6.90
2018-08-03T01:20:11.976Z,7.80
2018-08-03T01:22:39.794Z,6.50
2018-08-03T01:25:07.598Z,7.17
2018-08-03T01:27:35.408Z,7.30
2018-08-03T01:30:03.238Z,6.50
2018-08-03T01:32:31.064Z,6.63
2018-08-03T01:34:58.835Z,6.50
2018-08-03T01:37:26.658Z,6.20
2018-08-03T01:39:54.482Z,5.40
2018-08-03T01:42:22.303Z,6.40
2018-08-03T01:44:50.086Z,6.30
2018-08-03T01:47:17.894Z,6.50
2018-08-03T01:49:45.682Z,5.97
2018-08-03T01:52:13.522Z,6.27
2018-08-03T01:54:41.310Z,6.00
2018-08-03T01:57:09.114Z,6.47
2018-08-03T01:59:36.922Z,5.60
2018-08-03T02:02:04.710Z,5.53
2018-08-03T02:04:32.526Z,6.60
2018-08-03T02:07:00.338Z,7.20
2018-08-03T02:09:28.150Z,6.07
2018-08-03T02:11:55.951Z,5.80
2018-08-03T02:14:23.751Z,6.33
2018-08-03T02:16:51.542Z,6.40
2018-08-03T02:19:19.383Z,6.63
2018-08-03T02:21:47.203Z,6.13
2018-08-03T02:24:15.018Z,6.00
2018-08-03T02:26:42.858Z,6.10
2018-08-03T02:29:10.654Z,6.97
2018-08-03T02:31:38.471Z,6.00
2018-08-03T02:34:06.251Z,6.60
2018-08-03T02:36:34.082Z,6.20
2018-08-03T02:39:01.876Z,6.00
2018-08-03T02:41:29.691Z,6.23
2018-08-03T02:43:57.533Z,6.50
2018-08-03T02:46:25.353Z,6.80
2018-08-03T02:48:53.150Z,6.43
2018-08-03T02:51:20.945Z,6.57
2018-08-03T02:53:48.750Z,6.57
2018-08-03T02:56:16.551Z,6.80
2018-08-03T02:58:44.398Z,7.20
2018-08-03T03:01:12.211Z,6.10
2018-08-03T03:03:40.022Z,7.07
2018-08-03T03:06:07.816Z,7.47
2018-08-03T03:08:35.630Z,6.70
2018-08-03T03:11:03.806Z,6.67
2018-08-03T03:13:31.626Z,7.30
2018-08-03T03:15:59.414Z,6.70
2018-08-03T03:18:27.238Z,6.43
2018-08-03T03:20:55.197Z,6.40
2018-08-03T03:23:23.050Z,6.63
2018-08-03T03:25:50.879Z,6.70
2018-08-03T03:28:18.682Z,6.83
2018-08-03T03:30:46.499Z,7.17
2018-08-03T03:33:14.296Z,6.90
2018-08-03T03:35:42.114Z,6.60
2018-08-03T03:38:09.925Z,6.80
2018-08-03T03:40:37.746Z,6.47
2018-08-03T03:43:05.744Z,6.40
2018-08-03T03:45:33.595Z,6.30
2018-08-03T03:48:01.379Z,6.50
2018-08-03T03:50:29.189Z,6.80
2018-08-03T03:52:56.993Z,6.97
2018-08-03T03:55:24.836Z,6.70
2018-08-03T03:57:52.630Z,7.03
2018-08-03T04:00:20.458Z,6.40
2018-08-03T04:02:48.277Z,7.30
2018-08-03T04:05:16.107Z,6.47
2018-08-03T04:07:43.890Z,6.73
2018-08-03T04:10:11.702Z,6.80
2018-08-03T04:12:39.630Z,6.60
2018-08-03T04:15:07.454Z,7.00
2018-08-03T04:17:35.266Z,6.33
2018-08-03T04:20:03.368Z,6.80
2018-08-03T04:22:31.178Z,7.23
2018-08-03T04:24:58.971Z,6.57
2018-08-03T04:27:26.791Z,6.90
2018-08-03T04:29:54.582Z,6.47
2018-08-03T04:32:22.402Z,6.60
2018-08-03T04:34:50.192Z,7.27
2018-08-03T04:37:18.023Z,6.73
2018-08-03T04:39:45.804Z,6.43
2018-08-03T04:42:13.658Z,7.40
2018-08-03T04:44:41.423Z,6.40
2018-08-03T04:47:09.234Z,7.33
2018-08-03T04:49:37.033Z,7.47
2018-08-03T04:52:04.852Z,7.10
2018-08-03T04:54:32.651Z,7.33
2018-08-03T04:57:00.492Z,6.83
2018-08-03T04:59:28.311Z,7.60
2018-08-03T05:01:56.139Z,7.10
2018-08-03T05:04:23.938Z,6.90
2018-08-03T05:06:51.762Z,7.40
2018-08-03T05:09:19.556Z,6.60
2018-08-03T05:11:47.354Z,7.30
2018-08-03T05:14:15.187Z,7.00
2018-08-03T05:16:42.978Z,6.60
2018-08-03T05:19:10.806Z,7.10
2018-08-03T05:21:38.611Z,7.20
2018-08-03T05:24:06.486Z,7.07
2018-08-03T05:26:34.252Z,7.60
2018-08-03T05:29:02.080Z,7.80
2018-08-03T05:31:29.879Z,7.60
2018-08-03T05:33:57.711Z,7.27
2018-08-03T05:36:25.537Z,7.23
2018-08-03T05:38:53.333Z,8.10
2018-08-03T05:41:21.122Z,7.43
2018-08-03T05:43:48.959Z,7.30
2018-08-03T05:46:16.779Z,7.47
2018-08-03T05:48:44.599Z,7.50
2018-08-03T05:51:12.419Z,7.77
2018-08-03T05:53:40.223Z,8.13
2018-08-03T05:56:08.023Z,7.27
2018-08-03T05:58:35.832Z,8.10
2018-08-03T06:01:03.635Z,7.53
2018-08-03T06:03:31.441Z,7.90
2018-08-03T06:05:59.255Z,7.90
2018-08-03T06:08:27.486Z,8.67
2018-08-03T06:10:55.274Z,8.90
2018-08-03T06:13:23.063Z,7.30
2018-08-03T06:15:50.885Z,7.87
2018-08-03T06:18:18.679Z,9.03
2018-08-03T06:20:46.546Z,8.03
2018-08-03T06:23:14.364Z,8.10
2018-08-03T06:25:42.158Z,8.10
2018-08-03T06:28:09.950Z,8.80
2018-08-03T06:30:37.781Z,8.63
2018-08-03T06:33:05.576Z,8.00
2018-08-03T06:35:33.403Z,9.20
2018-08-03T06:38:01.214Z,8.50
2018-08-03T06:40:29.068Z,8.83
2018-08-03T06:42:56.903Z,8.07
2018-08-03T06:45:24.694Z,7.50
2018-08-03T06:47:52.502Z,7.90
2018-08-03T06:50:20.315Z,8.17
2018-08-03T06:52:48.154Z,8.10
2018-08-03T06:55:15.956Z,7.93
2018-08-03T06:57:43.764Z,8.03
2018-08-03T07:00:11.584Z,7.87
2018-08-03T07:02:39.409Z,8.50
2018-08-03T07:05:07.214Z,7.83
2018-08-03T07:07:35.023Z,7.60
2018-08-03T07:10:02.832Z,7.97
2018-08-03T07:12:30.650Z,7.20
2018-08-03T07:14:58.520Z,7.67
2018-08-03T07:17:26.248Z,7.30
2018-08-03T07:19:54.124Z,7.40
2018-08-03T07:22:21.843Z,7.03
2018-08-03T07:24:49.667Z,7.30
2018-08-03T07:27:17.455Z,7.80
2018-08-03T07:29:51.771Z,6.63
2018-08-03T07:32:19.571Z,6.87
2018-08-03T07:34:47.367Z,7.40
2018-08-03T07:37:15.322Z,7.30
2018-08-03T07:39:43.114Z,6.70
2018-08-03T07:42:10.932Z,7.10
2018-08-03T07:44:38.766Z,6.90
2018-08-03T07:47:06.539Z,7.70
2018-08-03T07:49:34.333Z,7.83
2018-08-03T07:52:02.197Z,7.33
2018-08-03T07:54:29.988Z,7.60
2018-08-03T07:56:57.798Z,7.50
2018-08-03T07:59:25.775Z,7.87
2018-08-03T08:01:53.694Z,7.20
2018-08-03T08:04:21.576Z,8.10
2018-08-03T08:06:49.517Z,6.83
2018-08-03T08:09:17.330Z,6.80
2018-08-03T08:11:45.140Z,7.67
2018-08-03T08:14:12.922Z,7.17
2018-08-03T08:16:41.963Z,7.23
2018-08-03T08:19:09.789Z,7.20
2018-08-03T08:21:37.599Z,7.77
2018-08-03T08:24:05.403Z,7.30
2018-08-03T08:26:36.211Z,6.70
2018-08-03T08:29:04.536Z,6.60
2018-08-03T08:31:32.335Z,6.73
2018-08-03T08:34:00.165Z,7.23
2018-08-03T08:36:28.174Z,7.07
2018-08-03T08:38:56.033Z,6.67
2018-08-03T08:41:23.830Z,7.50
2018-08-03T08:43:52.421Z,7.20
2018-08-03T08:46:20.154Z,6.17
2018-08-03T08:48:48.010Z,6.60
2018-08-03T08:51:15.884Z,7.50
2018-08-03T08:53:45.499Z,6.70
2018-08-03T08:56:14.239Z,7.07
2018-08-03T08:58:43.627Z,8.23
2018-08-03T09:01:12.374Z,7.30
2018-08-03T09:03:40.175Z,6.93
2018-08-03T09:06:08.514Z,5.70
2018-08-03T09:08:36.630Z,6.37
2018-08-03T09:11:04.540Z,6.70
2018-08-03T09:13:32.351Z,7.10
2018-08-03T09:16:00.258Z,6.40
2018-08-03T09:18:28.143Z,6.80
2018-08-03T09:20:55.914Z,6.07
2018-08-03T09:23:23.700Z,6.00
2018-08-03T09:25:51.510Z,6.80
2018-08-03T09:28:19.340Z,6.60
2018-08-03T09:30:47.205Z,6.87
2018-08-03T09:33:15.027Z,6.10
2018-08-03T09:35:42.815Z,6.47
2018-08-03T09:38:10.626Z,6.73
2018-08-03T09:40:38.475Z,6.73
2018-08-03T09:43:06.299Z,6.70
2018-08-03T09:45:34.600Z,6.30
2018-08-03T09:48:02.439Z,6.70
2018-08-03T09:50:33.543Z,6.67
2018-08-03T09:53:01.568Z,6.57
2018-08-03T09:55:29.394Z,6.37
2018-08-03T09:57:58.047Z,6.40
2018-08-03T10:00:31.256Z,6.50
2018-08-03T10:02:59.050Z,6.40
2018-08-03T10:05:26.864Z,7.00
2018-08-03T10:07:54.662Z,6.77
2018-08-03T10:10:22.466Z,6.70
2018-08-03T10:12:50.338Z,7.00
2018-08-03T10:15:18.062Z,7.00
2018-08-03T10:17:48.748Z,5.97
2018-08-03T10:20:26.287Z,6.33
2018-08-03T10:23:00.551Z,6.13
2018-08-03T10:25:28.358Z,6.03
2018-08-03T10:27:56.165Z,6.00
2018-08-03T10:30:23.956Z,5.53
2018-08-03T10:32:53.462Z,5.40
2018-08-03T10:35:30.529Z,5.10
2018-08-03T10:38:02.023Z,6.20
2018-08-03T10:40:39.016Z,6.40
2018-08-03T10:43:07.802Z,5.47
2018-08-03T10:45:35.617Z,5.10
2018-08-03T10:48:03.422Z,5.50
2018-08-03T10:50:31.307Z,5.00
2018-08-03T10:52:59.090Z,5.53
2018-08-03T10:55:26.888Z,6.03
2018-08-03T10:57:54.695Z,5.97
2018-08-03T11:00:23.409Z,6.33
2018-08-03T11:02:51.298Z,6.50
2018-08-03T11:05:19.118Z,6.57
2018-08-03T11:07:59.235Z,6.47
2018-08-03T11:10:28.005Z,6.13
2018-08-03T11:12:55.898Z,5.90
2018-08-03T11:15:23.702Z,6.17
2018-08-03T11:17:51.643Z,5.93
2018-08-03T11:20:19.426Z,6.60
2018-08-03T11:22:48.680Z,6.27
2018-08-03T11:25:17.401Z,5.37
2018-08-03T11:27:46.117Z,5.27
2018-08-03T11:30:14.733Z,5.47
2018-08-03T11:32:43.555Z,5.53
2018-08-03T11:35:12.857Z,5.73
2018-08-03T11:37:42.194Z,5.13
2018-08-03T11:40:10.717Z,5.63
2018-08-03T11:42:39.550Z,5.20
2018-08-03T11:45:09.262Z,5.10
2018-08-03T11:47:38.339Z,5.60
2018-08-03T11:50:08.231Z,5.30
2018-08-03T11:52:37.093Z,5.43
2018-08-03T11:55:06.866Z,5.30
2018-08-03T11:57:35.946Z,4.87
2018-08-03T12:00:05.614Z,4.87
2018-08-03T12:02:35.487Z,5.10
2018-08-03T12:05:04.795Z,5.30
2018-08-03T12:07:33.455Z,4.90
2018-08-03T12:10:02.379Z,5.50
2018-08-03T12:12:31.030Z,4.80
2018-08-03T12:15:00.279Z,4.67
2018-08-03T12:17:31.469Z,4.87
2018-08-03T12:20:00.147Z,5.10
2018-08-03T12:22:27.952Z,5.47
2018-08-03T12:24:55.805Z,5.20
2018-08-03T12:27:23.654Z,5.10
2018-08-03T12:29:51.500Z,4.90
2018-08-03T12:32:19.315Z,5.50
2018-08-03T12:34:47.127Z,5.37
2018-08-03T12:37:14.922Z,4.97
2018-08-03T12:39:42.739Z,5.07
2018-08-03T12:42:10.500Z,4.80
2018-08-03T12:44:38.334Z,5.50
2018-08-03T12:47:06.138Z,5.00
2018-08-03T12:49:33.956Z,5.40
2018-08-03T12:52:01.740Z,5.30
2018-08-03T12:54:29.586Z,5.17
2018-08-03T12:56:57.585Z,6.07
2018-08-03T12:59:28.608Z,5.37
2018-08-03T13:01:56.398Z,5.20
2018-08-03T13:04:24.177Z,5.87
2018-08-03T13:06:52.008Z,6.10
2018-08-03T13:09:19.995Z,5.50
2018-08-03T13:11:47.882Z,4.60
2018-08-03T13:14:15.753Z,5.10
2018-08-03T13:16:43.553Z,5.03
2018-08-03T13:19:11.362Z,5.30
2018-08-03T13:21:40.395Z,5.63
2018-08-03T13:24:08.163Z,5.00
2018-08-03T13:26:35.973Z,5.13
2018-08-03T13:29:03.777Z,5.40
2018-08-03T13:31:32.032Z,6.03
2018-08-03T13:33:59.891Z,5.23
2018-08-03T13:36:28.987Z,5.40
2018-08-03T13:38:56.818Z,5.70
2018-08-03T13:41:24.578Z,5.47
2018-08-03T13:43:52.365Z,6.17
2018-08-03T13:46:20.214Z,5.17
2018-08-03T13:48:48.577Z,4.87
2018-08-03T13:51:17.134Z,5.17
2018-08-03T13:53:45.697Z,5.07
2018-08-03T13:56:14.198Z,4.93
2018-08-03T13:58:42.870Z,5.03
2018-08-03T14:01:16.451Z,5.33
2018-08-03T14:03:44.252Z,5.30
2018-08-03T14:06:13.960Z,5.00
2018-08-03T14:08:44.777Z,4.87
2018-08-03T14:11:12.750Z,4.77
2018-08-03T14:13:40.530Z,4.70
2018-08-03T14:16:08.303Z,5.10
2018-08-03T14:18:36.090Z,5.03
2018-08-03T14:21:03.878Z,4.70
2018-08-03T14:23:31.690Z,5.10
2018-08-03T14:25:59.487Z,4.27
2018-08-03T14:28:27.267Z,4.57
2018-08-03T14:30:55.071Z,4.63
2018-08-03T14:33:22.854Z,5.30
2018-08-03T14:35:50.646Z,5.00
2018-08-03T14:38:19.008Z,4.63
2018-08-03T14:40:47.097Z,5.13
2018-08-03T14:43:14.917Z,4.40
2018-08-03T14:45:42.712Z,5.23
2018-08-03T14:48:10.663Z,4.80
2018-08-03T14:50:39.132Z,4.70
2018-08-03T14:53:06.967Z,4.50
2018-08-03T14:55:34.764Z,4.33
2018-08-03T14:58:02.579Z,4.70
2018-08-03T15:00:30.402Z,4.30
2018-08-03T15:02:58.191Z,4.97
2018-08-03T15:05:26.046Z,4.40
2018-08-03T15:07:53.854Z,4.47
2018-08-03T15:10:21.674Z,4.30
2018-08-03T15:12:49.558Z,4.83
2018-08-03T15:15:17.458Z,4.93
2018-08-03T15:17:45.227Z,4.30
2018-08-03T15:20:13.054Z,4.53
2018-08-03T15:22:41.164Z,4.00
2018-08-03T15:25:08.939Z,4.30
2018-08-03T15:27:42.292Z,4.47
2018-08-03T15:30:11.129Z,4.23
2018-08-03T15:32:38.957Z,3.80
2018-08-03T15:35:07.122Z,4.07
2018-08-03T15:37:35.219Z,4.03
2018-08-03T15:40:04.961Z,4.23
2018-08-03T15:42:33.177Z,4.33
2018-08-03T15:45:00.967Z,3.93
2018-08-03T15:47:28.757Z,4.60
2018-08-03T15:49:56.564Z,3.90
2018-08-03T15:52:24.546Z,3.80
2018-08-03T15:54:52.343Z,3.93
2018-08-03T15:57:20.142Z,4.10
2018-08-03T15:59:48.014Z,4.03
2018-08-03T16:02:15.822Z,3.60
2018-08-03T16:04:43.614Z,3.70
2018-08-03T16:07:11.435Z,3.67
2018-08-03T16:09:39.259Z,3.63
2018-08-03T16:12:07.066Z,3.50
2018-08-03T16:14:35.020Z,4.47
2018-08-03T16:17:02.858Z,3.37
2018-08-03T16:19:30.626Z,3.73
2018-08-03T16:21:58.742Z,3.47
2018-08-03T16:24:26.554Z,3.63
2018-08-03T16:26:54.418Z,3.60
2018-08-03T16:29:22.287Z,3.27
2018-08-03T16:31:50.063Z,3.90
2018-08-03T16:34:17.830Z,3.73
2018-08-03T16:36:45.618Z,4.00
2018-08-03T16:39:13.414Z,3.37
2018-08-03T16:41:41.258Z,3.73
2018-08-03T16:44:09.046Z,3.50
2018-08-03T16:46:36.889Z,3.90
2018-08-03T16:49:14.958Z,3.47
2018-08-03T16:51:42.743Z,3.57
2018-08-03T16:54:10.564Z,3.53
2018-08-03T16:56:38.346Z,3.83
2018-08-03T16:59:06.145Z,3.70
2018-08-03T17:01:34.901Z,4.00
2018-08-03T17:04:02.666Z,3.63
2018-08-03T17:06:31.958Z,3.03
2018-08-03T17:08:59.750Z,3.40
2018-08-03T17:11:27.730Z,3.47
2018-08-03T17:13:55.849Z,3.27
2018-08-03T17:16:23.687Z,3.80
2018-08-03T17:18:52.971Z,3.77
2018-08-03T17:21:20.911Z,3.47
2018-08-03T17:23:48.834Z,3.37
2018-08-03T17:26:16.646Z,3.27
2018-08-03T17:28:44.438Z,3.23
2018-08-03T17:31:12.267Z,3.20
2018-08-03T17:33:40.054Z,2.90
2018-08-03T17:36:07.855Z,3.60
2018-08-03T17:38:35.661Z,3.57
2018-08-03T17:41:04.854Z,2.90
2018-08-03T17:43:34.240Z,3.47
2018-08-03T17:46:07.412Z,3.17
2018-08-03T17:48:36.545Z,3.10
2018-08-03T17:51:07.740Z,4.00
2018-08-03T17:53:37.288Z,3.20
2018-08-03T17:56:07.841Z,3.37
2018-08-03T17:58:37.336Z,3.40
2018-08-03T18:01:05.219Z,3.90
2018-08-03T18:03:33.698Z,3.90
2018-08-03T18:06:01.487Z,3.43
2018-08-03T18:08:29.990Z,3.97
2018-08-03T18:10:58.150Z,4.27
2018-08-03T18:13:26.046Z,3.83
2018-08-03T18:15:54.582Z,3.77
2018-08-03T18:18:26.105Z,4.40
2018-08-03T18:20:56.395Z,4.10
2018-08-03T18:23:24.202Z,4.63
2018-08-03T18:25:52.662Z,4.30
2018-08-03T18:28:20.991Z,4.20
2018-08-03T18:30:48.799Z,4.63
2018-08-03T18:33:16.614Z,4.80
2018-08-03T18:35:44.458Z,3.40
2018-08-03T18:38:12.255Z,4.10
2018-08-03T18:40:40.092Z,3.77
2018-08-03T18:43:07.962Z,4.37
2018-08-03T18:45:35.759Z,3.60
2018-08-03T18:48:03.642Z,3.77
2018-08-03T18:50:31.491Z,3.90
2018-08-03T18:52:59.297Z,4.07
2018-08-03T18:55:27.110Z,4.13
2018-08-03T18:57:55.219Z,3.77
2018-08-03T19:00:23.068Z,4.20
2018-08-03T19:02:50.867Z,3.70
2018-08-03T19:05:18.703Z,4.33
2018-08-03T19:07:46.513Z,3.63
2018-08-03T19:10:14.346Z,3.57
2018-08-03T19:12:42.143Z,4.30
2018-08-03T19:15:10.763Z,4.27
2018-08-03T19:17:39.874Z,4.10
2018-08-03T19:20:08.467Z,4.67
2018-08-03T19:22:38.023Z,4.10
2018-08-03T19:25:06.038Z,4.03
2018-08-03T19:27:41.292Z,3.67
2018-08-03T19:30:09.343Z,4.07
2018-08-03T19:32:37.157Z,5.10
2018-08-03T19:35:06.780Z,4.33
2018-08-03T19:37:36.869Z,3.93
2018-08-03T19:40:09.561Z,4.37
2018-08-03T19:42:39.566Z,4.57
2018-08-03T19:45:08.232Z,4.37
2018-08-03T19:47:37.767Z,4.00
2018-08-03T19:50:08.262Z,3.80
2018-08-03T19:52:38.348Z,3.70
2018-08-03T19:55:07.602Z,3.87
2018-08-03T19:57:35.404Z,3.70
2018-08-03T20:03:04.798Z,4.50
2018-08-03T20:05:35.658Z,4.00
2018-08-03T20:08:04.508Z,4.20
2018-08-03T20:10:33.154Z,4.20
2018-08-03T20:13:01.017Z,3.93
2018-08-03T20:15:29.657Z,4.33
2018-08-03T20:17:57.944Z,3.73
2018-08-03T20:20:26.154Z,4.23
2018-08-03T20:22:54.080Z,3.80
2018-08-03T20:25:21.906Z,3.37
2018-08-03T20:27:50.241Z,3.63
2018-08-03T20:30:18.084Z,4.10
2018-08-03T20:32:46.213Z,4.10
2018-08-03T20:35:14.016Z,4.40
2018-08-03T20:37:41.851Z,4.40
2018-08-03T20:40:09.875Z,3.60
2018-08-03T20:42:37.876Z,4.60
2018-08-03T20:45:05.743Z,4.30
2018-08-03T20:47:33.726Z,4.10
2018-08-03T20:50:03.162Z,4.03
2018-08-03T20:52:31.103Z,4.30
2018-08-03T20:54:58.914Z,4.10
2018-08-03T20:57:27.092Z,3.90
2018-08-03T20:59:55.046Z,3.80
2018-08-03T21:02:24.553Z,4.20
2018-08-03T21:04:54.470Z,4.00
2018-08-03T21:10:18.942Z,4.20
2018-08-03T21:12:51.332Z,3.87
2018-08-03T21:15:19.523Z,4.30
2018-08-03T21:17:47.331Z,3.80
2018-08-03T21:20:15.131Z,4.20
2018-08-03T21:22:42.950Z,4.40
2018-08-03T21:25:11.895Z,4.23
2018-08-03T21:27:41.272Z,4.00
2018-08-03T21:30:12.046Z,3.60
2018-08-03T21:32:40.107Z,4.40
2018-08-03T21:35:07.929Z,4.33
2018-08-03T21:37:36.068Z,3.87
2018-08-03T21:40:09.958Z,4.00
2018-08-03T21:42:38.931Z,4.07
2018-08-03T21:45:06.726Z,3.70
2018-08-03T21:47:40.122Z,4.00
2018-08-03T21:50:07.936Z,4.60
2018-08-03T21:52:36.914Z,3.80
2018-08-03T21:55:06.313Z,4.40
2018-08-03T21:57:34.746Z,5.03
2018-08-03T22:00:02.597Z,4.20
2018-08-03T22:02:30.431Z,4.10
2018-08-03T22:04:58.251Z,3.93
2018-08-03T22:07:26.451Z,4.90
2018-08-03T22:09:54.903Z,3.83
2018-08-03T22:12:22.713Z,4.20
2018-08-03T22:14:51.861Z,4.23
2018-08-03T22:17:23.971Z,4.90
2018-08-03T22:19:55.789Z,4.03
2018-08-03T22:22:24.716Z,4.77
2018-08-03T22:24:53.409Z,4.20
2018-08-03T22:27:22.617Z,4.73
2018-08-03T22:29:50.572Z,3.90
2018-08-03T22:32:18.402Z,4.93
2018-08-03T22:34:47.499Z,4.53
2018-08-03T22:37:17.123Z,4.53
2018-08-03T22:39:46.643Z,4.97
2018-08-03T22:42:16.833Z,4.03
2018-08-03T22:44:45.354Z,3.97
2018-08-03T22:47:13.172Z,4.40
2018-08-03T22:49:42.232Z,4.10
2018-08-03T22:52:10.836Z,4.70
2018-08-03T22:54:38.598Z,4.23
2018-08-03T22:57:07.132Z,4.27
2018-08-03T22:59:42.279Z,5.30
2018-08-03T23:02:11.335Z,4.43
2018-08-03T23:04:39.590Z,5.10
2018-08-03T23:07:07.690Z,4.63
2018-08-03T23:09:36.352Z,4.30
2018-08-03T23:12:04.158Z,4.73
2018-08-03T23:14:31.961Z,4.27
2018-08-03T23:17:00.163Z,5.03
2018-08-03T23:19:28.127Z,4.47
2018-08-03T23:21:57.210Z,4.60
2018-08-03T23:24:25.338Z,4.57
2018-08-03T23:26:53.349Z,4.80
2018-08-03T23:29:21.658Z,4.83
2018-08-03T23:31:49.462Z,4.80
2018-08-03T23:34:19.535Z,4.67
2018-08-03T23:36:47.675Z,4.90
2018-08-03T23:39:15.475Z,4.37
2018-08-03T23:41:43.294Z,4.70
2018-08-03T23:44:11.159Z,4.30
2018-08-03T23:46:39.003Z,4.40
2018-08-03T23:49:06.821Z,4.80
2018-08-03T23:51:34.635Z,4.70
2018-08-03T23:54:02.470Z,4.73
2018-08-03T23:56:30.266Z,5.07
2018-08-03T23:58:58.079Z,4.50
